sensor_id;sensor_type;location;lat;lon;timestamp;temperature;humidity
14755;DHT22;7469;50.906;6.952;2023-02-04T00:00:36;9.20;99.90
14755;DHT22;7469;50.906;6.952;2023-02-04T00:03:04;9.10;99.90
14755;DHT22;7469;50.906;6.952;2023-02-04T00:05:33;9.10;99.90
14755;DHT22;7469;50.906;6.952;2023-02-04T00:08:03;9.10;99.90
14755;DHT22;7469;50.906;6.952;2023-02-04T00:10:31;9.10;99.90
14755;DHT22;7469;50.906;6.952;2023-02-04T00:12:59;9.10;99.90
14755;DHT22;7469;50.906;6.952;2023-02-04T00:15:27;9.10;99.90
14755;DHT22;7469;50.906;6.952;2023-02-04T00:17:55;9.10;99.90
14755;DHT22;7469;50.906;6.952;2023-02-04T00:20:23;9.00;99.90
14755;DHT22;7469;50.906;6.952;2023-02-04T00:22:51;9.00;99.90
14755;DHT22;7469;50.906;6.952;2023-02-04T00:25:20;9.00;99.90
14755;DHT22;7469;50.906;6.952;2023-02-04T00:27:48;9.00;99.90
14755;DHT22;7469;50.906;6.952;2023-02-04T00:30:16;9.00;99.90
14755;DHT22;7469;50.906;6.952;2023-02-04T00:32:44;9.00;99.90
14755;DHT22;7469;50.906;6.952;2023-02-04T00:35:12;9.00;99.90
14755;DHT22;7469;50.906;6.952;2023-02-04T00:37:41;9.00;99.90
14755;DHT22;7469;50.906;6.952;2023-02-04T00:40:10;9.00;99.90
14755;DHT22;7469;50.906;6.952;2023-02-04T00:42:39;9.00;99.90
14755;DHT22;7469;50.906;6.952;2023-02-04T00:45:08;9.00;99.90
14755;DHT22;7469;50.906;6.952;2023-02-04T00:47:37;8.90;99.90
14755;DHT22;7469;50.906;6.952;2023-02-04T00:50:05;8.90;99.90
14755;DHT22;7469;50.906;6.952;2023-02-04T00:52:33;8.90;99.90
14755;DHT22;7469;50.906;6.952;2023-02-04T00:55:02;8.90;99.90
14755;DHT22;7469;50.906;6.952;2023-02-04T00:57:30;8.90;99.90
14755;DHT22;7469;50.906;6.952;2023-02-04T00:59:59;8.80;99.90
14755;DHT22;7469;50.906;6.952;2023-02-04T01:02:27;8.90;99.90
14755;DHT22;7469;50.906;6.952;2023-02-04T01:04:55;8.80;99.90
14755;DHT22;7469;50.906;6.952;2023-02-04T01:07:23;8.80;99.90
14755;DHT22;7469;50.906;6.952;2023-02-04T01:09:51;8.80;99.90
14755;DHT22;7469;50.906;6.952;2023-02-04T01:12:19;8.80;99.90
14755;DHT22;7469;50.906;6.952;2023-02-04T01:14:49;8.80;99.90
14755;DHT22;7469;50.906;6.952;2023-02-04T01:17:19;8.80;99.90
14755;DHT22;7469;50.906;6.952;2023-02-04T01:19:47;8.80;99.90
14755;DHT22;7469;50.906;6.952;2023-02-04T01:22:15;8.80;99.90
14755;DHT22;7469;50.906;6.952;2023-02-04T01:24:43;8.80;99.90
14755;DHT22;7469;50.906;6.952;2023-02-04T01:27:11;8.80;99.90
14755;DHT22;7469;50.906;6.952;2023-02-04T01:29:39;8.70;99.90
14755;DHT22;7469;50.906;6.952;2023-02-04T01:32:07;8.70;99.90
14755;DHT22;7469;50.906;6.952;2023-02-04T01:34:36;8.70;99.90
14755;DHT22;7469;50.906;6.952;2023-02-04T01:37:04;8.70;99.90
14755;DHT22;7469;50.906;6.952;2023-02-04T01:39:32;8.70;99.90
14755;DHT22;7469;50.906;6.952;2023-02-04T01:42:00;8.70;99.90
14755;DHT22;7469;50.906;6.952;2023-02-04T01:44:28;8.70;99.90
14755;DHT22;7469;50.906;6.952;2023-02-04T01:46:56;8.70;99.90
14755;DHT22;7469;50.906;6.952;2023-02-04T01:49:25;8.70;99.90
14755;DHT22;7469;50.906;6.952;2023-02-04T01:51:54;8.60;99.90
14755;DHT22;7469;50.906;6.952;2023-02-04T01:54:22;8.60;99.90
14755;DHT22;7469;50.906;6.952;2023-02-04T01:56:51;8.60;99.90
14755;DHT22;7469;50.906;6.952;2023-02-04T01:59:21;8.60;99.90
14755;DHT22;7469;50.906;6.952;2023-02-04T02:01:51;8.60;99.90
14755;DHT22;7469;50.906;6.952;2023-02-04T02:04:25;8.60;99.90
14755;DHT22;7469;50.906;6.952;2023-02-04T02:06:57;8.50;99.90
14755;DHT22;7469;50.906;6.952;2023-02-04T02:09:26;8.60;99.90
14755;DHT22;7469;50.906;6.952;2023-02-04T02:11:55;8.60;99.90
14755;DHT22;7469;50.906;6.952;2023-02-04T02:14:23;8.60;99.90
14755;DHT22;7469;50.906;6.952;2023-02-04T02:16:51;8.50;99.90
14755;DHT22;7469;50.906;6.952;2023-02-04T02:19:23;8.50;99.90
14755;DHT22;7469;50.906;6.952;2023-02-04T02:21:59;8.60;99.90
14755;DHT22;7469;50.906;6.952;2023-02-04T02:24:33;8.50;99.90
14755;DHT22;7469;50.906;6.952;2023-02-04T02:27:04;8.50;99.90
14755;DHT22;7469;50.906;6.952;2023-02-04T02:29:34;8.50;99.90
14755;DHT22;7469;50.906;6.952;2023-02-04T02:32:02;8.50;99.90
14755;DHT22;7469;50.906;6.952;2023-02-04T02:34:31;8.50;99.90
14755;DHT22;7469;50.906;6.952;2023-02-04T02:37:00;8.50;99.90
14755;DHT22;7469;50.906;6.952;2023-02-04T02:39:28;8.40;99.90
14755;DHT22;7469;50.906;6.952;2023-02-04T02:41:58;8.40;99.90
14755;DHT22;7469;50.906;6.952;2023-02-04T02:44:27;8.40;99.90
14755;DHT22;7469;50.906;6.952;2023-02-04T02:46:55;8.40;99.90
14755;DHT22;7469;50.906;6.952;2023-02-04T02:49:25;8.40;99.90
14755;DHT22;7469;50.906;6.952;2023-02-04T02:51:53;8.40;99.90
14755;DHT22;7469;50.906;6.952;2023-02-04T02:54:23;8.40;99.90
14755;DHT22;7469;50.906;6.952;2023-02-04T02:56:52;8.40;99.90
14755;DHT22;7469;50.906;6.952;2023-02-04T02:59:21;8.40;99.90
14755;DHT22;7469;50.906;6.952;2023-02-04T03:01:52;8.40;99.90
14755;DHT22;7469;50.906;6.952;2023-02-04T03:04:21;8.40;99.90
14755;DHT22;7469;50.906;6.952;2023-02-04T03:07:01;8.30;99.90
14755;DHT22;7469;50.906;6.952;2023-02-04T03:09:29;8.30;99.90
14755;DHT22;7469;50.906;6.952;2023-02-04T03:11:57;8.30;99.90
14755;DHT22;7469;50.906;6.952;2023-02-04T03:14:25;8.30;99.90
14755;DHT22;7469;50.906;6.952;2023-02-04T03:16:56;8.30;99.90
14755;DHT22;7469;50.906;6.952;2023-02-04T03:19:25;8.30;99.90
14755;DHT22;7469;50.906;6.952;2023-02-04T03:21:55;8.30;99.90
14755;DHT22;7469;50.906;6.952;2023-02-04T03:24:24;8.30;99.90
14755;DHT22;7469;50.906;6.952;2023-02-04T03:26:52;8.30;99.90
14755;DHT22;7469;50.906;6.952;2023-02-04T03:29:20;8.30;99.90
14755;DHT22;7469;50.906;6.952;2023-02-04T03:31:48;8.30;99.90
14755;DHT22;7469;50.906;6.952;2023-02-04T03:34:16;8.30;99.90
14755;DHT22;7469;50.906;6.952;2023-02-04T03:36:44;8.30;99.90
14755;DHT22;7469;50.906;6.952;2023-02-04T03:39:12;8.30;99.90
14755;DHT22;7469;50.906;6.952;2023-02-04T03:41:44;8.20;99.90
14755;DHT22;7469;50.906;6.952;2023-02-04T03:44:14;8.30;99.90
14755;DHT22;7469;50.906;6.952;2023-02-04T03:46:42;8.30;99.90
14755;DHT22;7469;50.906;6.952;2023-02-04T03:49:10;8.30;99.90
14755;DHT22;7469;50.906;6.952;2023-02-04T03:51:39;8.30;99.90
14755;DHT22;7469;50.906;6.952;2023-02-04T03:54:07;8.30;99.90
14755;DHT22;7469;50.906;6.952;2023-02-04T03:56:35;8.30;99.90
14755;DHT22;7469;50.906;6.952;2023-02-04T03:59:05;8.30;99.90
14755;DHT22;7469;50.906;6.952;2023-02-04T04:01:32;8.20;99.90
14755;DHT22;7469;50.906;6.952;2023-02-04T04:04:01;8.20;99.90
14755;DHT22;7469;50.906;6.952;2023-02-04T04:06:28;8.20;99.90
14755;DHT22;7469;50.906;6.952;2023-02-04T04:08:57;8.20;99.90
14755;DHT22;7469;50.906;6.952;2023-02-04T04:11:25;8.20;99.90
14755;DHT22;7469;50.906;6.952;2023-02-04T04:13:53;8.20;99.90
14755;DHT22;7469;50.906;6.952;2023-02-04T04:16:22;8.20;99.90
14755;DHT22;7469;50.906;6.952;2023-02-04T04:18:50;8.20;99.90
14755;DHT22;7469;50.906;6.952;2023-02-04T04:21:18;8.20;99.90
14755;DHT22;7469;50.906;6.952;2023-02-04T04:23:46;8.20;99.90
14755;DHT22;7469;50.906;6.952;2023-02-04T04:26:14;8.10;99.90
14755;DHT22;7469;50.906;6.952;2023-02-04T04:28:43;8.10;99.90
14755;DHT22;7469;50.906;6.952;2023-02-04T04:31:11;8.10;99.90
14755;DHT22;7469;50.906;6.952;2023-02-04T04:33:40;8.10;99.90
14755;DHT22;7469;50.906;6.952;2023-02-04T04:36:08;8.10;99.90
14755;DHT22;7469;50.906;6.952;2023-02-04T04:38:36;8.10;99.90
14755;DHT22;7469;50.906;6.952;2023-02-04T04:41:04;8.10;99.90
14755;DHT22;7469;50.906;6.952;2023-02-04T04:43:32;8.10;99.90
14755;DHT22;7469;50.906;6.952;2023-02-04T04:46:00;8.10;99.90
14755;DHT22;7469;50.906;6.952;2023-02-04T04:48:28;8.10;99.90
14755;DHT22;7469;50.906;6.952;2023-02-04T04:50:57;8.10;99.90
14755;DHT22;7469;50.906;6.952;2023-02-04T04:53:25;8.10;99.90
14755;DHT22;7469;50.906;6.952;2023-02-04T04:55:53;8.10;99.90
14755;DHT22;7469;50.906;6.952;2023-02-04T04:58:21;8.10;99.90
14755;DHT22;7469;50.906;6.952;2023-02-04T05:00:49;8.00;99.90
14755;DHT22;7469;50.906;6.952;2023-02-04T05:03:17;8.00;99.90
14755;DHT22;7469;50.906;6.952;2023-02-04T05:05:45;8.00;99.90
14755;DHT22;7469;50.906;6.952;2023-02-04T05:08:15;8.00;99.90
14755;DHT22;7469;50.906;6.952;2023-02-04T05:10:44;8.00;99.90
14755;DHT22;7469;50.906;6.952;2023-02-04T05:13:12;7.90;99.90
14755;DHT22;7469;50.906;6.952;2023-02-04T05:15:40;7.90;99.90
14755;DHT22;7469;50.906;6.952;2023-02-04T05:18:08;7.90;99.90
14755;DHT22;7469;50.906;6.952;2023-02-04T05:20:36;7.90;99.90
14755;DHT22;7469;50.906;6.952;2023-02-04T05:23:04;7.90;99.90
14755;DHT22;7469;50.906;6.952;2023-02-04T05:25:33;7.90;99.90
14755;DHT22;7469;50.906;6.952;2023-02-04T05:28:01;7.90;99.90
14755;DHT22;7469;50.906;6.952;2023-02-04T05:30:29;7.90;99.90
14755;DHT22;7469;50.906;6.952;2023-02-04T05:32:58;7.80;99.90
14755;DHT22;7469;50.906;6.952;2023-02-04T05:35:26;7.80;99.90
14755;DHT22;7469;50.906;6.952;2023-02-04T05:37:54;7.80;99.90
14755;DHT22;7469;50.906;6.952;2023-02-04T05:40:22;7.80;99.90
14755;DHT22;7469;50.906;6.952;2023-02-04T05:42:51;7.80;99.90
14755;DHT22;7469;50.906;6.952;2023-02-04T05:45:19;7.80;99.90
14755;DHT22;7469;50.906;6.952;2023-02-04T05:47:47;7.80;99.90
14755;DHT22;7469;50.906;6.952;2023-02-04T05:50:15;7.80;99.90
14755;DHT22;7469;50.906;6.952;2023-02-04T05:52:43;7.80;99.90
14755;DHT22;7469;50.906;6.952;2023-02-04T05:55:11;7.70;99.90
14755;DHT22;7469;50.906;6.952;2023-02-04T05:57:39;7.70;99.90
14755;DHT22;7469;50.906;6.952;2023-02-04T06:00:11;7.70;99.90
14755;DHT22;7469;50.906;6.952;2023-02-04T06:02:40;7.70;99.90
14755;DHT22;7469;50.906;6.952;2023-02-04T06:05:08;7.70;99.90
14755;DHT22;7469;50.906;6.952;2023-02-04T06:07:35;7.70;99.90
14755;DHT22;7469;50.906;6.952;2023-02-04T06:10:04;7.70;99.90
14755;DHT22;7469;50.906;6.952;2023-02-04T06:12:32;7.70;99.90
14755;DHT22;7469;50.906;6.952;2023-02-04T06:15:00;7.70;99.90
14755;DHT22;7469;50.906;6.952;2023-02-04T06:17:30;7.70;99.90
14755;DHT22;7469;50.906;6.952;2023-02-04T06:19:58;7.70;99.90
14755;DHT22;7469;50.906;6.952;2023-02-04T06:22:26;7.70;99.90
14755;DHT22;7469;50.906;6.952;2023-02-04T06:24:54;7.70;99.90
14755;DHT22;7469;50.906;6.952;2023-02-04T06:27:22;7.70;99.90
14755;DHT22;7469;50.906;6.952;2023-02-04T06:29:51;7.70;99.90
14755;DHT22;7469;50.906;6.952;2023-02-04T06:32:20;7.70;99.90
14755;DHT22;7469;50.906;6.952;2023-02-04T06:34:49;7.70;99.90
14755;DHT22;7469;50.906;6.952;2023-02-04T06:37:17;7.70;99.90
14755;DHT22;7469;50.906;6.952;2023-02-04T06:39:46;7.70;99.90
14755;DHT22;7469;50.906;6.952;2023-02-04T06:42:14;7.60;99.90
14755;DHT22;7469;50.906;6.952;2023-02-04T06:44:42;7.60;99.90
14755;DHT22;7469;50.906;6.952;2023-02-04T06:47:09;7.60;99.90
14755;DHT22;7469;50.906;6.952;2023-02-04T06:49:37;7.60;99.90
14755;DHT22;7469;50.906;6.952;2023-02-04T06:52:07;7.60;99.90
14755;DHT22;7469;50.906;6.952;2023-02-04T06:54:35;7.50;99.90
14755;DHT22;7469;50.906;6.952;2023-02-04T06:57:03;7.50;99.90
14755;DHT22;7469;50.906;6.952;2023-02-04T06:59:33;7.50;99.90
14755;DHT22;7469;50.906;6.952;2023-02-04T07:02:02;7.50;99.90
14755;DHT22;7469;50.906;6.952;2023-02-04T07:04:30;7.50;99.90
14755;DHT22;7469;50.906;6.952;2023-02-04T07:06:58;7.50;99.90
14755;DHT22;7469;50.906;6.952;2023-02-04T07:09:27;7.50;99.90
14755;DHT22;7469;50.906;6.952;2023-02-04T07:11:55;7.50;99.90
14755;DHT22;7469;50.906;6.952;2023-02-04T07:14:23;7.40;99.90
14755;DHT22;7469;50.906;6.952;2023-02-04T07:16:51;7.50;99.90
14755;DHT22;7469;50.906;6.952;2023-02-04T07:19:19;7.40;99.90
14755;DHT22;7469;50.906;6.952;2023-02-04T07:21:47;7.40;99.90
14755;DHT22;7469;50.906;6.952;2023-02-04T07:24:19;7.40;99.90
14755;DHT22;7469;50.906;6.952;2023-02-04T07:26:49;7.40;99.90
14755;DHT22;7469;50.906;6.952;2023-02-04T07:29:17;7.40;99.90
14755;DHT22;7469;50.906;6.952;2023-02-04T07:31:51;7.40;99.90
14755;DHT22;7469;50.906;6.952;2023-02-04T07:34:19;7.40;99.90
14755;DHT22;7469;50.906;6.952;2023-02-04T07:36:47;7.40;99.90
14755;DHT22;7469;50.906;6.952;2023-02-04T07:39:15;7.40;99.90
14755;DHT22;7469;50.906;6.952;2023-02-04T07:41:43;7.40;99.90
14755;DHT22;7469;50.906;6.952;2023-02-04T07:44:13;7.40;99.90
14755;DHT22;7469;50.906;6.952;2023-02-04T07:46:41;7.50;99.90
14755;DHT22;7469;50.906;6.952;2023-02-04T07:49:09;7.50;99.90
14755;DHT22;7469;50.906;6.952;2023-02-04T07:51:37;7.50;99.90
14755;DHT22;7469;50.906;6.952;2023-02-04T07:54:04;7.60;99.90
14755;DHT22;7469;50.906;6.952;2023-02-04T07:56:32;7.70;99.90
14755;DHT22;7469;50.906;6.952;2023-02-04T07:59:00;7.70;99.90
14755;DHT22;7469;50.906;6.952;2023-02-04T08:01:30;7.80;99.90
14755;DHT22;7469;50.906;6.952;2023-02-04T08:03:58;7.80;99.90
14755;DHT22;7469;50.906;6.952;2023-02-04T08:06:26;7.90;99.90
14755;DHT22;7469;50.906;6.952;2023-02-04T08:08:54;7.90;99.90
14755;DHT22;7469;50.906;6.952;2023-02-04T08:11:22;8.00;99.90
14755;DHT22;7469;50.906;6.952;2023-02-04T08:13:52;8.00;99.90
14755;DHT22;7469;50.906;6.952;2023-02-04T08:16:20;8.10;99.90
14755;DHT22;7469;50.906;6.952;2023-02-04T08:18:49;8.20;99.90
14755;DHT22;7469;50.906;6.952;2023-02-04T08:21:17;8.20;99.90
14755;DHT22;7469;50.906;6.952;2023-02-04T08:23:45;8.20;99.90
14755;DHT22;7469;50.906;6.952;2023-02-04T08:26:13;8.30;99.90
14755;DHT22;7469;50.906;6.952;2023-02-04T08:28:41;8.30;99.90
14755;DHT22;7469;50.906;6.952;2023-02-04T08:31:09;8.40;99.90
14755;DHT22;7469;50.906;6.952;2023-02-04T08:33:38;8.40;99.90
14755;DHT22;7469;50.906;6.952;2023-02-04T08:36:08;8.50;99.90
14755;DHT22;7469;50.906;6.952;2023-02-04T08:38:37;8.60;99.90
14755;DHT22;7469;50.906;6.952;2023-02-04T08:41:06;8.70;99.90
14755;DHT22;7469;50.906;6.952;2023-02-04T08:43:34;8.80;99.90
14755;DHT22;7469;50.906;6.952;2023-02-04T08:46:02;8.90;99.90
14755;DHT22;7469;50.906;6.952;2023-02-04T08:48:31;9.00;99.90
14755;DHT22;7469;50.906;6.952;2023-02-04T08:50:59;9.10;99.90
14755;DHT22;7469;50.906;6.952;2023-02-04T08:53:28;9.20;99.90
14755;DHT22;7469;50.906;6.952;2023-02-04T08:55:56;9.20;99.90
14755;DHT22;7469;50.906;6.952;2023-02-04T08:58:24;9.20;99.90
14755;DHT22;7469;50.906;6.952;2023-02-04T09:00:52;9.30;99.90
14755;DHT22;7469;50.906;6.952;2023-02-04T09:03:20;9.40;99.90
14755;DHT22;7469;50.906;6.952;2023-02-04T09:05:48;9.50;99.90
14755;DHT22;7469;50.906;6.952;2023-02-04T09:08:16;9.60;99.90
14755;DHT22;7469;50.906;6.952;2023-02-04T09:10:45;9.70;99.90
14755;DHT22;7469;50.906;6.952;2023-02-04T09:13:13;9.80;99.90
14755;DHT22;7469;50.906;6.952;2023-02-04T09:15:41;9.90;99.90
14755;DHT22;7469;50.906;6.952;2023-02-04T09:18:09;10.00;99.90
14755;DHT22;7469;50.906;6.952;2023-02-04T09:20:42;10.20;99.90
14755;DHT22;7469;50.906;6.952;2023-02-04T09:23:11;10.30;99.90
14755;DHT22;7469;50.906;6.952;2023-02-04T09:25:41;10.40;99.90
14755;DHT22;7469;50.906;6.952;2023-02-04T09:28:11;10.40;99.90
14755;DHT22;7469;50.906;6.952;2023-02-04T09:30:41;10.60;99.90
14755;DHT22;7469;50.906;6.952;2023-02-04T09:33:10;10.60;99.90
14755;DHT22;7469;50.906;6.952;2023-02-04T09:35:39;10.70;99.90
14755;DHT22;7469;50.906;6.952;2023-02-04T09:38:07;10.80;99.90
14755;DHT22;7469;50.906;6.952;2023-02-04T09:40:41;10.80;99.90
14755;DHT22;7469;50.906;6.952;2023-02-04T09:43:16;10.80;99.90
14755;DHT22;7469;50.906;6.952;2023-02-04T09:45:47;10.90;99.90
14755;DHT22;7469;50.906;6.952;2023-02-04T09:48:15;10.90;99.90
14755;DHT22;7469;50.906;6.952;2023-02-04T09:50:43;11.00;99.90
14755;DHT22;7469;50.906;6.952;2023-02-04T09:53:13;11.10;99.90
14755;DHT22;7469;50.906;6.952;2023-02-04T09:55:46;11.10;99.90
14755;DHT22;7469;50.906;6.952;2023-02-04T09:58:17;11.20;99.90
14755;DHT22;7469;50.906;6.952;2023-02-04T10:00:47;11.20;99.90
14755;DHT22;7469;50.906;6.952;2023-02-04T10:03:18;11.20;99.90
14755;DHT22;7469;50.906;6.952;2023-02-04T10:05:48;11.20;99.90
14755;DHT22;7469;50.906;6.952;2023-02-04T10:08:19;11.20;99.90
14755;DHT22;7469;50.906;6.952;2023-02-04T10:10:48;11.20;99.90
14755;DHT22;7469;50.906;6.952;2023-02-04T10:13:20;11.20;99.90
14755;DHT22;7469;50.906;6.952;2023-02-04T10:15:50;11.20;99.90
14755;DHT22;7469;50.906;6.952;2023-02-04T10:18:22;11.20;99.90
14755;DHT22;7469;50.906;6.952;2023-02-04T10:20:52;11.20;99.90
14755;DHT22;7469;50.906;6.952;2023-02-04T10:23:22;11.20;99.90
14755;DHT22;7469;50.906;6.952;2023-02-04T10:25:50;11.30;99.90
14755;DHT22;7469;50.906;6.952;2023-02-04T10:28:19;11.30;99.90
14755;DHT22;7469;50.906;6.952;2023-02-04T10:30:48;11.30;99.90
14755;DHT22;7469;50.906;6.952;2023-02-04T10:33:22;11.30;99.90
14755;DHT22;7469;50.906;6.952;2023-02-04T10:35:52;11.30;99.90
14755;DHT22;7469;50.906;6.952;2023-02-04T10:38:21;11.30;99.90
14755;DHT22;7469;50.906;6.952;2023-02-04T10:40:59;11.20;99.90
14755;DHT22;7469;50.906;6.952;2023-02-04T10:43:29;11.20;99.90
14755;DHT22;7469;50.906;6.952;2023-02-04T10:45:58;11.20;99.90
14755;DHT22;7469;50.906;6.952;2023-02-04T10:48:26;11.20;99.90
14755;DHT22;7469;50.906;6.952;2023-02-04T10:50:56;11.20;99.90
14755;DHT22;7469;50.906;6.952;2023-02-04T10:53:25;11.20;99.90
14755;DHT22;7469;50.906;6.952;2023-02-04T10:56:15;11.20;99.90
14755;DHT22;7469;50.906;6.952;2023-02-04T10:58:44;11.30;99.90
14755;DHT22;7469;50.906;6.952;2023-02-04T11:01:15;11.30;99.90
14755;DHT22;7469;50.906;6.952;2023-02-04T11:03:45;11.30;99.90
14755;DHT22;7469;50.906;6.952;2023-02-04T11:06:20;11.30;99.90
14755;DHT22;7469;50.906;6.952;2023-02-04T11:08:49;11.30;99.90
14755;DHT22;7469;50.906;6.952;2023-02-04T11:11:22;11.30;99.90
14755;DHT22;7469;50.906;6.952;2023-02-04T11:13:59;11.30;99.90
14755;DHT22;7469;50.906;6.952;2023-02-04T11:16:30;11.30;99.90
14755;DHT22;7469;50.906;6.952;2023-02-04T11:19:03;11.30;99.90
14755;DHT22;7469;50.906;6.952;2023-02-04T11:21:42;11.30;99.90
14755;DHT22;7469;50.906;6.952;2023-02-04T11:24:23;11.40;99.90
14755;DHT22;7469;50.906;6.952;2023-02-04T11:26:52;11.40;99.90
14755;DHT22;7469;50.906;6.952;2023-02-04T11:29:34;11.50;99.90
14755;DHT22;7469;50.906;6.952;2023-02-04T11:32:05;11.60;99.90
14755;DHT22;7469;50.906;6.952;2023-02-04T11:34:46;11.80;99.90
14755;DHT22;7469;50.906;6.952;2023-02-04T11:37:33;12.00;99.90
14755;DHT22;7469;50.906;6.952;2023-02-04T11:40:18;12.00;99.90
14755;DHT22;7469;50.906;6.952;2023-02-04T11:42:47;12.10;99.90
14755;DHT22;7469;50.906;6.952;2023-02-04T11:45:20;12.20;99.90
14755;DHT22;7469;50.906;6.952;2023-02-04T11:47:49;12.30;99.90
14755;DHT22;7469;50.906;6.952;2023-02-04T11:50:21;12.40;99.90
14755;DHT22;7469;50.906;6.952;2023-02-04T11:52:50;12.50;99.90
14755;DHT22;7469;50.906;6.952;2023-02-04T11:55:18;12.60;99.90
14755;DHT22;7469;50.906;6.952;2023-02-04T11:57:50;12.70;99.90
14755;DHT22;7469;50.906;6.952;2023-02-04T12:00:21;12.70;99.90
14755;DHT22;7469;50.906;6.952;2023-02-04T12:02:55;12.70;99.90
14755;DHT22;7469;50.906;6.952;2023-02-04T12:05:35;12.70;99.90
14755;DHT22;7469;50.906;6.952;2023-02-04T12:08:11;12.60;99.90
14755;DHT22;7469;50.906;6.952;2023-02-04T12:10:47;12.50;99.90
14755;DHT22;7469;50.906;6.952;2023-02-04T12:13:21;12.40;99.90
14755;DHT22;7469;50.906;6.952;2023-02-04T12:15:58;12.40;99.90
14755;DHT22;7469;50.906;6.952;2023-02-04T12:18:26;12.30;99.90
14755;DHT22;7469;50.906;6.952;2023-02-04T12:20:55;12.30;99.90
14755;DHT22;7469;50.906;6.952;2023-02-04T12:23:23;12.30;99.90
14755;DHT22;7469;50.906;6.952;2023-02-04T12:25:51;12.30;99.90
14755;DHT22;7469;50.906;6.952;2023-02-04T12:28:20;12.30;99.90
14755;DHT22;7469;50.906;6.952;2023-02-04T12:30:48;12.30;99.90
14755;DHT22;7469;50.906;6.952;2023-02-04T12:33:18;12.30;99.90
14755;DHT22;7469;50.906;6.952;2023-02-04T12:35:46;12.30;99.90
14755;DHT22;7469;50.906;6.952;2023-02-04T12:38:14;12.30;99.90
14755;DHT22;7469;50.906;6.952;2023-02-04T12:40:44;12.40;99.90
14755;DHT22;7469;50.906;6.952;2023-02-04T12:43:12;12.40;99.90
14755;DHT22;7469;50.906;6.952;2023-02-04T12:45:40;12.40;99.90
14755;DHT22;7469;50.906;6.952;2023-02-04T12:48:11;12.50;99.90
14755;DHT22;7469;50.906;6.952;2023-02-04T12:50:42;12.60;99.90
14755;DHT22;7469;50.906;6.952;2023-02-04T12:53:10;12.60;99.90
14755;DHT22;7469;50.906;6.952;2023-02-04T12:55:37;12.60;99.90
14755;DHT22;7469;50.906;6.952;2023-02-04T12:58:05;12.70;99.90
14755;DHT22;7469;50.906;6.952;2023-02-04T13:00:33;12.70;99.90
14755;DHT22;7469;50.906;6.952;2023-02-04T13:03:01;12.70;99.90
14755;DHT22;7469;50.906;6.952;2023-02-04T13:05:30;12.80;99.90
14755;DHT22;7469;50.906;6.952;2023-02-04T13:08:01;12.80;99.90
14755;DHT22;7469;50.906;6.952;2023-02-04T13:10:29;12.80;99.90
14755;DHT22;7469;50.906;6.952;2023-02-04T13:12:57;12.90;99.90
14755;DHT22;7469;50.906;6.952;2023-02-04T13:15:27;12.90;99.90
14755;DHT22;7469;50.906;6.952;2023-02-04T13:17:55;12.90;99.90
14755;DHT22;7469;50.906;6.952;2023-02-04T13:20:23;13.00;99.90
14755;DHT22;7469;50.906;6.952;2023-02-04T13:22:51;13.00;99.90
14755;DHT22;7469;50.906;6.952;2023-02-04T13:25:20;13.10;99.90
14755;DHT22;7469;50.906;6.952;2023-02-04T13:27:48;13.10;99.90
14755;DHT22;7469;50.906;6.952;2023-02-04T13:30:17;13.10;99.90
14755;DHT22;7469;50.906;6.952;2023-02-04T13:32:45;13.10;99.90
14755;DHT22;7469;50.906;6.952;2023-02-04T13:35:13;13.00;99.90
14755;DHT22;7469;50.906;6.952;2023-02-04T13:37:41;13.00;99.90
14755;DHT22;7469;50.906;6.952;2023-02-04T13:40:10;12.90;99.90
14755;DHT22;7469;50.906;6.952;2023-02-04T13:42:39;12.90;99.90
14755;DHT22;7469;50.906;6.952;2023-02-04T13:45:09;13.00;99.90
14755;DHT22;7469;50.906;6.952;2023-02-04T13:47:38;13.10;99.90
14755;DHT22;7469;50.906;6.952;2023-02-04T13:50:07;13.10;99.90
14755;DHT22;7469;50.906;6.952;2023-02-04T13:52:35;13.20;99.90
14755;DHT22;7469;50.906;6.952;2023-02-04T13:55:03;13.20;99.90
14755;DHT22;7469;50.906;6.952;2023-02-04T13:57:31;13.10;99.90
14755;DHT22;7469;50.906;6.952;2023-02-04T14:00:01;13.00;99.90
14755;DHT22;7469;50.906;6.952;2023-02-04T14:02:28;13.00;99.90
14755;DHT22;7469;50.906;6.952;2023-02-04T14:04:57;13.00;99.90
14755;DHT22;7469;50.906;6.952;2023-02-04T14:07:25;12.90;99.90
14755;DHT22;7469;50.906;6.952;2023-02-04T14:09:53;12.80;99.90
14755;DHT22;7469;50.906;6.952;2023-02-04T14:12:21;12.80;99.90
14755;DHT22;7469;50.906;6.952;2023-02-04T14:14:49;12.70;99.90
14755;DHT22;7469;50.906;6.952;2023-02-04T14:17:18;12.60;99.90
14755;DHT22;7469;50.906;6.952;2023-02-04T14:19:46;12.60;99.90
14755;DHT22;7469;50.906;6.952;2023-02-04T14:22:14;12.60;99.90
14755;DHT22;7469;50.906;6.952;2023-02-04T14:24:42;12.60;99.90
14755;DHT22;7469;50.906;6.952;2023-02-04T14:27:10;12.60;99.90
14755;DHT22;7469;50.906;6.952;2023-02-04T14:29:38;12.60;99.90
14755;DHT22;7469;50.906;6.952;2023-02-04T14:32:06;12.60;99.90
14755;DHT22;7469;50.906;6.952;2023-02-04T14:34:35;12.60;99.90
14755;DHT22;7469;50.906;6.952;2023-02-04T14:37:03;12.60;99.90
14755;DHT22;7469;50.906;6.952;2023-02-04T14:39:31;12.70;99.90
14755;DHT22;7469;50.906;6.952;2023-02-04T14:41:59;12.80;99.90
14755;DHT22;7469;50.906;6.952;2023-02-04T14:44:30;13.00;99.90
14755;DHT22;7469;50.906;6.952;2023-02-04T14:46:58;13.10;99.90
14755;DHT22;7469;50.906;6.952;2023-02-04T14:49:25;13.30;99.90
14755;DHT22;7469;50.906;6.952;2023-02-04T14:51:55;13.40;99.90
14755;DHT22;7469;50.906;6.952;2023-02-04T14:54:23;13.50;99.90
14755;DHT22;7469;50.906;6.952;2023-02-04T14:56:51;13.60;99.90
14755;DHT22;7469;50.906;6.952;2023-02-04T14:59:19;13.50;99.90
14755;DHT22;7469;50.906;6.952;2023-02-04T15:01:47;13.30;99.90
14755;DHT22;7469;50.906;6.952;2023-02-04T15:04:15;13.20;99.90
14755;DHT22;7469;50.906;6.952;2023-02-04T15:06:44;13.10;99.90
14755;DHT22;7469;50.906;6.952;2023-02-04T15:09:13;12.90;99.90
14755;DHT22;7469;50.906;6.952;2023-02-04T15:11:41;12.80;99.90
14755;DHT22;7469;50.906;6.952;2023-02-04T15:14:09;12.60;99.90
14755;DHT22;7469;50.906;6.952;2023-02-04T15:16:37;12.40;99.90
14755;DHT22;7469;50.906;6.952;2023-02-04T15:19:06;12.20;99.90
14755;DHT22;7469;50.906;6.952;2023-02-04T15:21:34;12.10;99.90
14755;DHT22;7469;50.906;6.952;2023-02-04T15:24:02;12.10;99.90
14755;DHT22;7469;50.906;6.952;2023-02-04T15:26:31;12.00;99.90
14755;DHT22;7469;50.906;6.952;2023-02-04T15:29:00;11.90;99.90
14755;DHT22;7469;50.906;6.952;2023-02-04T15:31:28;11.90;99.90
14755;DHT22;7469;50.906;6.952;2023-02-04T15:33:56;11.80;99.90
14755;DHT22;7469;50.906;6.952;2023-02-04T15:36:24;11.80;99.90
14755;DHT22;7469;50.906;6.952;2023-02-04T15:38:54;11.70;99.90
14755;DHT22;7469;50.906;6.952;2023-02-04T15:41:22;11.60;99.90
14755;DHT22;7469;50.906;6.952;2023-02-04T15:43:51;11.50;99.90
14755;DHT22;7469;50.906;6.952;2023-02-04T15:46:19;11.40;99.90
14755;DHT22;7469;50.906;6.952;2023-02-04T15:48:47;11.40;99.90
14755;DHT22;7469;50.906;6.952;2023-02-04T15:51:15;11.30;99.90
14755;DHT22;7469;50.906;6.952;2023-02-04T15:53:43;11.30;99.90
14755;DHT22;7469;50.906;6.952;2023-02-04T15:56:13;11.20;99.90
14755;DHT22;7469;50.906;6.952;2023-02-04T15:58:43;11.20;99.90
14755;DHT22;7469;50.906;6.952;2023-02-04T16:01:13;11.10;99.90
14755;DHT22;7469;50.906;6.952;2023-02-04T16:03:41;11.10;99.90
14755;DHT22;7469;50.906;6.952;2023-02-04T16:06:11;11.00;99.90